Friday, August 01, 2014
22:35 UTC
  |  Log In   |  Register Free
Airport Search:

Pike County-Hatcher Field Airport
(KPBX)

Pike County-Hatcher Field Airport Diagram
No Airport Diagram Available

FAA data valid effective July 24, 2014 until September 18, 2014 (unless otherwise noted).

 
 
 
 
 
 
 
 
 
 
 
 
 
 

Current Aviation Weather for Pike County-Hatcher Field Airport (KPBX)

The most recent METAR observation for KLNP was updated at: 1835 UTC
METAR Summary (Translated METAR)
KLNP
281835Z AUTO 27008KT 10SM SCT027 BKN049 OVC060 21/13 A3000 RMK AO2
KVJI
(29.9 nm SE from KLNP)
281835Z AUTO 33007KT 10SM OVC065 23/15 A2996 RMK AO2 T02330147
TAF Summary (Translated TAF)
KTRI
(31.3 nm SE from KLNP)
011720Z 0118/0218 07004KT P6SM VCSH SCT035 BKN080 FM020000 00000KT P6SM SCT080 FM020500 00000KT 4SM BR SKC FM020700 00000KT 2SM BR SCT003 FM020900 00000KT 1/2SM FG BKN002 FM021300 00000KT 1SM BR BKN005 FM021400 00000KT 3SM BR BKN010 FM021500 00000KT P6SM SCT025
  Airport Weather Conditions for KPBX

Current weather conditions are
not available for PBX


The nearest NOAA weather station
is at LNP, (34.5 nm SE from PBX)
  
 Current Weather at LNP
77° F
Fair
Southeast winds at 6.9 mph
LNP NOAA Radar

Pressure: 30.16 in
Humidity: 51%
Wind: Southeast at 6.9 MPH (6 KT)
Dew Point: 57.2°F
Visibility: 10.00 mi


Airport Weather Forecast for KPBX

Translated METAR and TAF for KLNP
Translated METAR for KLNP (2229 UTC 01 August 2014)
found at http://aviationweather.gov/adds/metars/
 
METAR text: KLNP 012215Z AUTO 16003KT 10SM SCT026 SCT033 24/15 A3015 RMK AO2
Conditions at: KLNP (WISE/LONESOME PI, VA, US) observed 2215 UTC 01 August 2014
Temperature: 24.0°C (75°F)
Dewpoint: 15.0°C (59°F) [RH = 57%]
Pressure (altimeter): 30.15 inches Hg (1021.1 mb)
Winds: from the SSE (160 degrees) at 3 MPH (3 knots; 1.6 m/s)
Visibility: 10 or more miles (16+ km)
Ceiling: at least 12,000 feet AGL
Clouds: scattered clouds at 2600 feet AGL
scattered clouds at 3300 feet AGL
Weather: automated observation with no human augmentation;
there may or may not be significant weather present at this time
Translated TAF for KLNP

There is no translated TAF available for this airport

Find All Airport Services Find A Hotel Find A Rental Car Find A Golf Course Find A Restaurant $100 Hamburger



FBO's on the Field
FBO Company Facility Photos Services Transportation Aviation Fuel Prices: Prices include tax
Catering Weather Repair Courtesy Rental Type 100LL JetA JetA+ MOGAS 8087
 
Pikeville-Pike Airport

This FBO has not yet been rated
FS:Shell
Last Updated: Jul-29
Login to update fuel prices
SS:
Contact Pikeville-Pike AirportMore FBO Information
 
Add another FBO Facility Photos Catering Weather Repair Courtesy Rental Type 100LL JetA JetA+ MOGAS 8087
Services Transportation Aviation Fuel Prices: Prices include tax


GlobalAir.com Airport Resource Center model-print
model-print
model-print
model-print